createdAt,value
2023-03-29T00:00:07.042Z,44.45
2023-03-29T00:01:07.050Z,44.36
2023-03-29T00:02:07.127Z,44.18
2023-03-29T00:03:07.370Z,44.30
2023-03-29T00:04:07.275Z,44.30
2023-03-29T00:05:07.268Z,44.52
2023-03-29T00:06:07.244Z,44.51
2023-03-29T00:07:07.292Z,44.37
2023-03-29T00:08:07.375Z,44.55
2023-03-29T00:09:07.309Z,44.62
2023-03-29T00:10:07.311Z,44.49
2023-03-29T00:11:07.383Z,44.51
2023-03-29T00:12:07.416Z,44.83
2023-03-29T00:13:07.438Z,45.45
2023-03-29T00:14:07.466Z,45.64
2023-03-29T00:15:07.424Z,45.85
2023-03-29T00:16:07.449Z,45.79
2023-03-29T00:17:07.482Z,45.64
2023-03-29T00:18:07.501Z,45.97
2023-03-29T00:19:07.530Z,46.54
2023-03-29T00:20:07.592Z,47.00
2023-03-29T00:21:07.604Z,47.52
2023-03-29T00:22:07.670Z,47.45
2023-03-29T00:23:07.780Z,47.23
2023-03-29T00:24:07.715Z,47.20
2023-03-29T00:25:07.745Z,47.23
2023-03-29T00:26:08.331Z,47.13
2023-03-29T00:27:07.801Z,47.60
2023-03-29T00:28:07.802Z,47.81
2023-03-29T00:29:07.807Z,47.73
2023-03-29T00:30:07.823Z,47.63
2023-03-29T00:31:07.914Z,47.44
2023-03-29T00:32:07.880Z,47.32
2023-03-29T00:33:07.905Z,47.18
2023-03-29T00:34:07.885Z,47.01
2023-03-29T00:35:07.895Z,46.63
2023-03-29T00:36:07.950Z,46.77
2023-03-29T00:37:07.918Z,47.49
2023-03-29T00:38:07.976Z,48.18
2023-03-29T00:39:08.004Z,48.43
2023-03-29T00:40:07.986Z,48.26
2023-03-29T00:41:08.007Z,48.02
2023-03-29T00:42:08.042Z,47.97
2023-03-29T00:43:08.105Z,47.84
2023-03-29T00:44:08.131Z,47.91
2023-03-29T00:45:08.162Z,47.92
2023-03-29T00:46:08.266Z,47.79
2023-03-29T00:47:08.271Z,47.87
2023-03-29T00:48:08.494Z,48.04
2023-03-29T00:49:08.370Z,47.89
2023-03-29T00:50:08.316Z,47.92
2023-03-29T00:51:09.993Z,47.71
2023-03-29T00:52:08.392Z,47.45
2023-03-29T00:53:08.398Z,47.11
2023-03-29T00:54:08.456Z,47.31
2023-03-29T00:55:08.454Z,47.10
2023-03-29T00:56:08.496Z,47.10
2023-03-29T00:57:08.584Z,47.22
2023-03-29T00:58:08.572Z,47.02
2023-03-29T00:59:08.569Z,47.28
2023-03-29T01:00:08.624Z,47.41
2023-03-29T01:01:08.676Z,47.86
2023-03-29T01:02:08.796Z,48.15
2023-03-29T01:03:08.859Z,47.98
2023-03-29T01:04:08.896Z,47.67
2023-03-29T01:05:08.821Z,47.69
2023-03-29T01:06:08.827Z,47.54
2023-03-29T01:07:08.885Z,48.31
2023-03-29T01:08:08.834Z,48.82
2023-03-29T01:09:08.907Z,48.68
2023-03-29T01:10:08.942Z,48.45
2023-03-29T01:11:09.045Z,48.40
2023-03-29T01:12:09.053Z,47.91
2023-03-29T01:13:09.145Z,47.53
2023-03-29T01:14:09.164Z,47.45
2023-03-29T01:15:09.200Z,47.86
2023-03-29T01:16:09.286Z,47.76
2023-03-29T01:17:09.338Z,47.93
2023-03-29T01:18:09.412Z,48.04
2023-03-29T01:19:09.395Z,47.89
2023-03-29T01:20:09.391Z,48.30
2023-03-29T01:21:09.409Z,48.55
2023-03-29T01:22:09.458Z,48.41
2023-03-29T01:23:09.468Z,48.39
2023-03-29T01:24:09.460Z,48.41
2023-03-29T01:25:09.472Z,48.81
2023-03-29T01:26:09.526Z,48.70
2023-03-29T01:27:09.539Z,48.77
2023-03-29T01:28:09.654Z,48.73
2023-03-29T01:29:09.649Z,49.51
2023-03-29T01:30:09.663Z,49.64
2023-03-29T01:31:09.733Z,49.50
2023-03-29T01:32:09.800Z,50.05
2023-03-29T01:33:09.790Z,49.83
2023-03-29T01:34:09.834Z,49.19
2023-03-29T01:35:09.860Z,49.26
2023-03-29T01:36:09.964Z,49.07
2023-03-29T01:37:09.966Z,49.00
2023-03-29T01:38:10.029Z,49.01
2023-03-29T01:39:10.091Z,49.26
2023-03-29T01:40:10.214Z,49.60
2023-03-29T01:41:10.190Z,49.60
2023-03-29T01:42:10.277Z,49.54
2023-03-29T01:43:10.380Z,49.81
2023-03-29T01:44:10.396Z,50.47
2023-03-29T01:45:10.459Z,50.51
2023-03-29T01:46:10.763Z,50.15
2023-03-29T01:47:10.556Z,50.56
2023-03-29T01:48:10.670Z,50.92
2023-03-29T01:49:10.743Z,51.07
2023-03-29T01:50:10.719Z,51.21
2023-03-29T01:51:10.765Z,51.45
2023-03-29T01:52:10.791Z,51.12
2023-03-29T01:53:10.920Z,51.44
2023-03-29T01:54:10.903Z,51.40
2023-03-29T01:55:10.977Z,51.59
2023-03-29T01:56:10.974Z,51.73
2023-03-29T01:57:11.056Z,52.06
2023-03-29T01:58:11.093Z,52.53
2023-03-29T01:59:11.095Z,52.11
2023-03-29T02:00:11.141Z,52.28
2023-03-29T02:01:11.232Z,52.18
2023-03-29T02:02:11.321Z,53.53
2023-03-29T02:03:11.414Z,53.29
2023-03-29T02:04:11.292Z,53.66
2023-03-29T02:05:11.286Z,53.40
2023-03-29T02:06:11.341Z,53.03
2023-03-29T02:07:11.420Z,52.71
2023-03-29T02:08:11.468Z,52.12
2023-03-29T02:09:11.474Z,51.36
2023-03-29T02:10:11.497Z,51.40
2023-03-29T02:11:11.541Z,51.54
2023-03-29T02:12:11.612Z,52.11
2023-03-29T02:13:11.704Z,52.81
2023-03-29T02:14:11.707Z,53.01
2023-03-29T02:15:11.772Z,54.07
2023-03-29T02:16:11.871Z,54.67
2023-03-29T02:17:11.827Z,54.61
2023-03-29T02:18:11.937Z,54.72
2023-03-29T02:19:11.946Z,55.01
2023-03-29T02:20:11.955Z,55.55
2023-03-29T02:21:12.007Z,56.36
2023-03-29T02:22:12.081Z,56.04
2023-03-29T02:23:12.096Z,56.61
2023-03-29T02:24:12.140Z,56.19
2023-03-29T02:25:12.147Z,56.96
2023-03-29T02:26:12.156Z,57.38
2023-03-29T02:27:12.161Z,57.62
2023-03-29T02:28:12.191Z,57.78
2023-03-29T02:29:12.115Z,57.40
2023-03-29T02:30:12.168Z,57.09
2023-03-29T02:31:12.229Z,56.62
2023-03-29T02:32:12.239Z,55.84
2023-03-29T02:33:12.260Z,56.09
2023-03-29T02:34:12.252Z,56.36
2023-03-29T02:35:12.275Z,56.57
2023-03-29T02:36:12.296Z,57.24
2023-03-29T02:37:12.316Z,58.35
2023-03-29T02:38:12.388Z,58.67
2023-03-29T02:39:12.390Z,59.09
2023-03-29T02:40:12.405Z,59.31
2023-03-29T02:41:12.445Z,59.24
2023-03-29T02:42:12.466Z,57.69
2023-03-29T02:43:12.474Z,57.41
2023-03-29T02:44:12.506Z,57.37
2023-03-29T02:45:12.533Z,57.24
2023-03-29T02:46:12.591Z,56.72
2023-03-29T02:47:12.605Z,57.67
2023-03-29T02:48:12.682Z,58.59
2023-03-29T02:49:12.757Z,58.70
2023-03-29T02:50:12.733Z,58.11
2023-03-29T02:51:12.836Z,57.65
2023-03-29T02:52:12.907Z,56.98
2023-03-29T02:53:12.917Z,56.53
2023-03-29T02:54:12.917Z,56.24
2023-03-29T02:55:12.961Z,56.06
2023-03-29T02:56:12.935Z,56.05
2023-03-29T02:57:13.042Z,55.92
2023-03-29T02:58:13.050Z,55.83
2023-03-29T02:59:13.050Z,55.67
2023-03-29T03:00:13.074Z,55.76
2023-03-29T03:01:13.117Z,55.82
2023-03-29T03:02:13.095Z,56.12
2023-03-29T03:03:13.267Z,57.33
2023-03-29T03:04:13.409Z,57.86
2023-03-29T03:05:13.141Z,57.98
2023-03-29T03:06:13.140Z,57.43
2023-03-29T03:07:13.163Z,56.99
2023-03-29T03:08:13.164Z,56.63
2023-03-29T03:09:13.191Z,56.06
2023-03-29T03:10:13.250Z,55.61
2023-03-29T03:11:13.293Z,55.19
2023-03-29T03:12:13.324Z,55.11
2023-03-29T03:13:13.393Z,55.04
2023-03-29T03:14:13.434Z,55.24
2023-03-29T03:15:13.506Z,55.68
2023-03-29T03:16:13.590Z,55.67
2023-03-29T03:17:13.537Z,55.43
2023-03-29T03:18:13.519Z,55.47
2023-03-29T03:19:13.524Z,55.51
2023-03-29T03:20:13.608Z,55.79
2023-03-29T03:21:13.616Z,55.49
2023-03-29T03:22:13.669Z,55.35
2023-03-29T03:23:13.740Z,55.48
2023-03-29T03:24:13.781Z,55.04
2023-03-29T03:25:13.853Z,55.19
2023-03-29T03:26:13.898Z,55.14
2023-03-29T03:27:13.962Z,54.62
2023-03-29T03:28:14.030Z,54.65
2023-03-29T03:29:14.035Z,54.78
2023-03-29T03:30:14.022Z,54.55
2023-03-29T03:31:14.135Z,55.01
2023-03-29T03:32:14.110Z,54.89
2023-03-29T03:33:14.136Z,55.07
2023-03-29T03:34:14.186Z,55.09
2023-03-29T03:35:14.226Z,56.30
2023-03-29T03:36:14.271Z,57.34
2023-03-29T03:37:14.282Z,58.51
2023-03-29T03:38:14.289Z,59.36
2023-03-29T03:39:14.337Z,60.09
2023-03-29T03:40:14.309Z,60.30
2023-03-29T03:41:14.313Z,61.16
2023-03-29T03:42:14.380Z,61.97
2023-03-29T03:43:14.454Z,62.17
2023-03-29T03:44:14.443Z,62.22
2023-03-29T03:45:15.422Z,62.99
2023-03-29T03:46:14.552Z,63.49
2023-03-29T03:47:14.517Z,63.42
2023-03-29T03:48:14.528Z,63.63
2023-03-29T03:49:14.528Z,63.80
2023-03-29T03:50:14.565Z,63.84
2023-03-29T03:51:14.639Z,63.61
2023-03-29T03:52:14.705Z,63.43
2023-03-29T03:53:14.746Z,63.01
2023-03-29T03:54:14.763Z,62.84
2023-03-29T03:55:14.834Z,62.81
2023-03-29T03:56:14.891Z,63.17
2023-03-29T03:57:14.938Z,63.51
2023-03-29T03:58:14.926Z,63.52
2023-03-29T03:59:14.951Z,63.26
2023-03-29T04:00:15.057Z,62.75
2023-03-29T04:01:15.123Z,62.58
2023-03-29T04:02:15.196Z,62.23
2023-03-29T04:03:15.401Z,61.65
2023-03-29T04:04:15.336Z,61.67
2023-03-29T04:05:15.362Z,61.64
2023-03-29T04:06:15.390Z,61.83
2023-03-29T04:07:15.441Z,62.49
2023-03-29T04:08:15.488Z,62.40
2023-03-29T04:09:15.510Z,62.00
2023-03-29T04:10:15.540Z,62.10
2023-03-29T04:11:15.648Z,61.69
2023-03-29T04:12:15.684Z,61.80
2023-03-29T04:13:15.706Z,61.85
2023-03-29T04:14:15.767Z,62.05
2023-03-29T04:15:15.781Z,62.57
2023-03-29T04:16:15.838Z,62.68
2023-03-29T04:17:15.844Z,62.35
2023-03-29T04:18:16.134Z,62.09
2023-03-29T04:19:15.955Z,61.87
2023-03-29T04:20:16.046Z,62.03
2023-03-29T04:21:16.085Z,61.67
2023-03-29T04:22:16.133Z,62.04
2023-03-29T04:23:16.212Z,61.80
2023-03-29T04:24:16.308Z,61.75
2023-03-29T04:25:16.297Z,61.37
2023-03-29T04:26:16.308Z,61.17
2023-03-29T04:27:16.352Z,60.49
2023-03-29T04:28:16.434Z,60.42
2023-03-29T04:29:16.510Z,60.12
2023-03-29T04:30:16.576Z,60.68
2023-03-29T04:31:16.699Z,61.43
2023-03-29T04:32:16.749Z,62.36
2023-03-29T04:33:16.815Z,62.52
2023-03-29T04:34:16.935Z,62.30
2023-03-29T04:35:16.963Z,62.61
2023-03-29T04:36:17.034Z,63.42
2023-03-29T04:37:16.956Z,63.23
2023-03-29T04:38:16.960Z,62.27
2023-03-29T04:39:16.919Z,61.12
2023-03-29T04:40:16.912Z,61.90
2023-03-29T04:41:16.910Z,62.30
2023-03-29T04:42:16.881Z,62.51
2023-03-29T04:43:16.915Z,62.74
2023-03-29T04:44:16.844Z,63.05
2023-03-29T04:45:16.903Z,62.99
2023-03-29T04:46:16.897Z,63.69
2023-03-29T04:47:16.916Z,64.29
2023-03-29T04:48:16.936Z,64.14
2023-03-29T04:49:16.989Z,64.65
2023-03-29T04:50:16.988Z,64.90
2023-03-29T04:51:17.045Z,65.41
2023-03-29T04:52:17.096Z,65.31
2023-03-29T04:53:17.147Z,65.12
2023-03-29T04:54:17.178Z,64.83
2023-03-29T04:55:17.169Z,64.75
2023-03-29T04:56:17.209Z,65.09
2023-03-29T04:57:17.255Z,64.86
2023-03-29T04:58:18.155Z,64.99
2023-03-29T04:59:17.229Z,65.28
2023-03-29T05:01:45.118Z,65.62
2023-03-29T05:02:37.566Z,65.61
2023-03-29T05:03:37.488Z,65.42
2023-03-29T05:04:37.523Z,64.90
2023-03-29T05:05:37.457Z,64.45
2023-03-29T05:06:37.432Z,63.78
2023-03-29T05:07:37.434Z,63.80
2023-03-29T05:08:37.437Z,64.16
2023-03-29T05:09:37.405Z,64.17
2023-03-29T05:10:37.442Z,63.87
2023-03-29T05:11:37.414Z,63.87
2023-03-29T05:12:37.454Z,63.43
2023-03-29T05:13:37.429Z,63.28
2023-03-29T05:14:37.377Z,63.85
2023-03-29T05:15:39.043Z,63.65
2023-03-29T05:16:37.414Z,63.21
2023-03-29T05:17:37.376Z,62.24
2023-03-29T05:18:37.425Z,62.71
2023-03-29T05:19:37.378Z,62.88
2023-03-29T05:20:37.359Z,63.29
2023-03-29T05:21:37.331Z,63.91
2023-03-29T05:22:37.333Z,64.33
2023-03-29T05:23:37.416Z,64.48
2023-03-29T05:24:37.353Z,64.77
2023-03-29T05:25:37.317Z,65.00
2023-03-29T05:26:37.350Z,64.84
2023-03-29T05:27:37.332Z,64.65
2023-03-29T05:28:37.366Z,63.56
2023-03-29T05:29:37.282Z,63.02
2023-03-29T05:30:37.305Z,62.83
2023-03-29T05:31:37.331Z,62.61
2023-03-29T05:32:37.330Z,62.66
2023-03-29T05:33:37.382Z,63.03
2023-03-29T05:34:37.297Z,63.39
2023-03-29T05:35:37.326Z,63.53
2023-03-29T05:36:37.287Z,63.12
2023-03-29T05:37:37.356Z,63.08
2023-03-29T05:38:37.725Z,62.63
2023-03-29T05:39:37.793Z,62.08
2023-03-29T05:40:37.256Z,62.50
2023-03-29T05:41:37.248Z,62.63
2023-03-29T05:42:37.229Z,62.71
2023-03-29T05:43:37.263Z,63.23
2023-03-29T05:44:37.722Z,63.33
2023-03-29T05:47:05.176Z,64.02
2023-03-29T05:47:57.377Z,64.09
2023-03-29T05:48:57.555Z,63.63
2023-03-29T05:49:57.445Z,63.55
2023-03-29T05:50:57.386Z,63.37
2023-03-29T05:51:57.350Z,63.23
2023-03-29T05:52:57.423Z,63.22
2023-03-29T05:53:57.325Z,63.22
2023-03-29T05:54:57.293Z,62.52
2023-03-29T05:55:57.304Z,62.33
2023-03-29T05:56:57.398Z,61.49
2023-03-29T05:57:57.367Z,61.25
2023-03-29T05:58:57.367Z,61.52
2023-03-29T05:59:57.499Z,61.67
2023-03-29T06:00:57.478Z,61.89
2023-03-29T06:01:57.496Z,61.76
2023-03-29T06:03:06.466Z,61.54
2023-03-29T06:03:59.328Z,60.97
2023-03-29T06:04:57.656Z,61.56
2023-03-29T06:05:57.523Z,61.66
2023-03-29T06:06:57.617Z,62.00
2023-03-29T06:07:57.519Z,61.70
2023-03-29T06:08:57.487Z,60.69
2023-03-29T06:09:57.548Z,59.94
2023-03-29T06:10:57.481Z,59.82
2023-03-29T06:11:57.510Z,59.75
2023-03-29T06:12:57.607Z,60.00
2023-03-29T06:13:57.568Z,60.49
2023-03-29T06:14:58.040Z,61.26
2023-03-29T06:15:57.673Z,62.11
2023-03-29T06:16:57.775Z,61.57
2023-03-29T06:17:57.801Z,61.38
2023-03-29T06:18:57.820Z,62.32
2023-03-29T06:19:57.980Z,62.32
2023-03-29T06:20:58.014Z,62.18
2023-03-29T06:21:57.943Z,62.30
2023-03-29T06:22:57.947Z,61.92
2023-03-29T06:23:58.044Z,61.57
2023-03-29T06:24:57.958Z,61.77
2023-03-29T06:25:58.007Z,61.78
2023-03-29T06:26:57.970Z,61.49
2023-03-29T06:27:58.016Z,60.96
2023-03-29T06:28:57.988Z,61.54
2023-03-29T06:29:58.043Z,61.52
2023-03-29T06:30:58.148Z,61.61
2023-03-29T06:31:58.090Z,61.81
2023-03-29T06:32:58.175Z,61.38
2023-03-29T06:33:58.030Z,61.10
2023-03-29T06:34:58.593Z,61.23
2023-03-29T06:35:58.162Z,61.05
2023-03-29T06:36:58.585Z,61.39
2023-03-29T06:37:58.140Z,62.35
2023-03-29T06:38:58.251Z,62.67
2023-03-29T06:39:58.567Z,63.20
2023-03-29T06:40:58.464Z,63.19
2023-03-29T06:41:59.029Z,62.80
2023-03-29T06:42:58.232Z,63.09
2023-03-29T06:43:58.242Z,63.42
2023-03-29T06:45:00.255Z,63.66
2023-03-29T06:46:01.249Z,63.67
2023-03-29T06:47:05.870Z,63.76
2023-03-29T06:47:58.771Z,63.96
2023-03-29T06:48:58.777Z,64.28
2023-03-29T06:49:58.713Z,64.25
2023-03-29T06:50:58.583Z,64.17
2023-03-29T06:51:59.423Z,64.22
2023-03-29T06:53:02.463Z,64.07
2023-03-29T06:53:58.300Z,64.15
2023-03-29T06:54:58.261Z,63.71
2023-03-29T06:55:58.281Z,63.13
2023-03-29T06:56:58.287Z,63.21
2023-03-29T06:57:59.114Z,63.65
2023-03-29T06:58:59.561Z,63.27
2023-03-29T07:01:26.128Z,62.63
2023-03-29T07:02:17.978Z,61.52
2023-03-29T07:03:18.003Z,61.34
2023-03-29T07:04:18.255Z,61.55
2023-03-29T07:05:18.029Z,61.69
2023-03-29T07:06:18.613Z,61.33
2023-03-29T07:07:18.056Z,61.70
2023-03-29T07:08:18.022Z,61.44
2023-03-29T07:09:19.565Z,61.02
2023-03-29T07:10:18.169Z,60.49
2023-03-29T07:11:18.091Z,59.86
2023-03-29T07:12:18.158Z,59.35
2023-03-29T07:13:18.160Z,59.14
2023-03-29T07:14:18.198Z,60.08
2023-03-29T07:15:18.258Z,60.47
2023-03-29T07:16:18.319Z,60.31
2023-03-29T07:17:18.320Z,59.64
2023-03-29T07:18:18.456Z,59.31
2023-03-29T07:19:18.500Z,59.09
2023-03-29T07:20:18.562Z,59.24
2023-03-29T07:21:18.505Z,59.80
2023-03-29T07:22:18.580Z,59.78
2023-03-29T07:23:18.608Z,60.53
2023-03-29T07:24:18.648Z,60.27
2023-03-29T07:25:18.699Z,60.01
2023-03-29T07:26:30.006Z,60.16
2023-03-29T07:27:18.781Z,60.07
2023-03-29T07:28:18.696Z,59.81
2023-03-29T07:29:18.697Z,60.21
2023-03-29T07:30:19.155Z,60.69
2023-03-29T07:31:18.737Z,60.76
2023-03-29T07:32:18.759Z,60.67
2023-03-29T07:33:18.851Z,61.19
2023-03-29T07:34:18.706Z,61.54
2023-03-29T07:35:19.124Z,61.73
2023-03-29T07:36:18.740Z,62.24
2023-03-29T07:37:18.723Z,62.74
2023-03-29T07:38:18.751Z,62.66
2023-03-29T07:39:18.835Z,62.36
2023-03-29T07:40:19.050Z,62.49
2023-03-29T07:41:18.868Z,61.44
2023-03-29T07:42:18.876Z,61.29
2023-03-29T07:43:19.003Z,61.44
2023-03-29T07:44:18.987Z,60.75
2023-03-29T07:45:19.606Z,60.42
2023-03-29T07:46:20.180Z,59.62
2023-03-29T07:47:19.183Z,59.42
2023-03-29T07:48:19.225Z,60.07
2023-03-29T07:49:21.004Z,60.46
2023-03-29T07:50:19.639Z,60.65
2023-03-29T07:51:19.196Z,59.69
2023-03-29T07:52:19.133Z,60.32
2023-03-29T07:53:19.183Z,60.37
2023-03-29T07:54:26.740Z,61.05
2023-03-29T07:55:19.134Z,61.96
2023-03-29T07:56:19.158Z,62.54
2023-03-29T07:57:19.175Z,62.99
2023-03-29T07:58:19.194Z,62.57
2023-03-29T07:59:19.124Z,61.99
2023-03-29T08:00:19.157Z,62.00
2023-03-29T08:01:19.902Z,62.22
2023-03-29T08:02:19.114Z,62.38
2023-03-29T08:03:19.185Z,62.70
2023-03-29T08:04:19.188Z,63.60
2023-03-29T08:05:29.251Z,62.98
2023-03-29T08:06:20.045Z,63.18
2023-03-29T08:07:20.101Z,62.43
2023-03-29T08:08:19.091Z,62.67
2023-03-29T08:09:19.092Z,61.74
2023-03-29T08:10:19.056Z,61.34
2023-03-29T08:11:19.070Z,61.35
2023-03-29T08:12:19.007Z,61.82
2023-03-29T08:13:18.980Z,61.80
2023-03-29T08:14:19.023Z,61.84
2023-03-29T08:15:19.614Z,62.31
2023-03-29T08:16:19.021Z,62.39
2023-03-29T08:17:19.062Z,61.80
2023-03-29T08:18:19.029Z,61.68
2023-03-29T08:19:19.208Z,62.12
2023-03-29T08:20:19.172Z,62.03
2023-03-29T08:21:19.648Z,61.93
2023-03-29T08:22:19.093Z,61.82
2023-03-29T08:23:19.143Z,62.25
2023-03-29T08:24:20.900Z,60.98
2023-03-29T08:25:19.565Z,60.97
2023-03-29T08:26:19.364Z,60.37
2023-03-29T08:27:19.313Z,59.41
2023-03-29T08:28:19.286Z,59.09
2023-03-29T08:29:19.343Z,58.66
2023-03-29T08:30:19.377Z,58.89
2023-03-29T08:31:19.398Z,59.93
2023-03-29T08:32:19.423Z,59.32
2023-03-29T08:33:19.396Z,59.48
2023-03-29T08:34:19.423Z,59.47
2023-03-29T08:35:19.602Z,59.89
2023-03-29T08:36:19.454Z,59.99
2023-03-29T08:37:19.446Z,60.32
2023-03-29T08:38:19.395Z,60.85
2023-03-29T08:39:19.699Z,61.16
2023-03-29T08:40:19.672Z,61.50
2023-03-29T08:41:19.462Z,61.26
2023-03-29T08:42:19.456Z,60.79
2023-03-29T08:43:19.674Z,61.02
2023-03-29T08:44:19.502Z,61.20
2023-03-29T08:45:19.525Z,61.25
2023-03-29T08:46:19.532Z,61.64
2023-03-29T08:47:19.562Z,62.27
2023-03-29T08:48:19.486Z,62.72
2023-03-29T08:49:19.495Z,62.70
2023-03-29T08:50:19.562Z,62.37
2023-03-29T08:51:19.488Z,62.54
2023-03-29T08:52:19.485Z,63.13
2023-03-29T08:53:19.495Z,63.26
2023-03-29T08:54:19.521Z,63.32
2023-03-29T08:55:19.561Z,63.46
2023-03-29T08:56:19.427Z,64.00
2023-03-29T08:57:19.541Z,64.20
2023-03-29T08:58:19.568Z,63.92
2023-03-29T08:59:19.501Z,64.22
2023-03-29T09:00:19.633Z,64.81
2023-03-29T09:01:19.629Z,64.63
2023-03-29T09:02:19.712Z,64.50
2023-03-29T09:03:19.754Z,64.20
2023-03-29T09:04:19.732Z,63.97
2023-03-29T09:05:20.162Z,63.95
2023-03-29T09:06:19.834Z,64.36
2023-03-29T09:07:19.909Z,64.45
2023-03-29T09:08:19.870Z,64.24
2023-03-29T09:09:19.960Z,64.29
2023-03-29T09:10:19.949Z,63.45
2023-03-29T09:11:19.976Z,63.89
2023-03-29T09:12:20.041Z,63.61
2023-03-29T09:13:20.142Z,63.62
2023-03-29T09:14:20.095Z,63.52
2023-03-29T09:15:20.090Z,63.37
2023-03-29T09:16:20.197Z,63.59
2023-03-29T09:17:20.112Z,63.29
2023-03-29T09:18:20.181Z,63.52
2023-03-29T09:19:20.137Z,63.74
2023-03-29T09:20:20.616Z,64.02
2023-03-29T09:21:20.226Z,64.07
2023-03-29T09:22:20.244Z,64.25
2023-03-29T09:23:20.290Z,64.56
2023-03-29T09:24:20.330Z,64.01
2023-03-29T09:25:20.609Z,62.98
2023-03-29T09:26:20.397Z,62.32
2023-03-29T09:27:20.374Z,62.57
2023-03-29T09:28:20.388Z,63.40
2023-03-29T09:29:20.390Z,63.69
2023-03-29T09:30:20.554Z,63.55
2023-03-29T09:31:20.481Z,63.05
2023-03-29T09:32:20.417Z,62.21
2023-03-29T09:33:20.427Z,62.38
2023-03-29T09:34:20.433Z,61.94
2023-03-29T09:35:20.600Z,61.99
2023-03-29T09:36:20.580Z,61.51
2023-03-29T09:37:20.616Z,61.76
2023-03-29T09:38:20.680Z,62.79
2023-03-29T09:39:20.973Z,62.79
2023-03-29T09:40:21.777Z,62.20
2023-03-29T09:41:20.853Z,61.64
2023-03-29T09:42:20.988Z,60.58
2023-03-29T09:43:20.641Z,59.29
2023-03-29T09:44:30.329Z,59.34
2023-03-29T09:45:22.036Z,59.91
2023-03-29T09:46:20.701Z,60.36
2023-03-29T09:47:20.653Z,60.86
2023-03-29T09:48:20.648Z,59.88
2023-03-29T09:49:20.700Z,58.88
2023-03-29T09:50:30.730Z,58.17
2023-03-29T09:51:21.648Z,57.44
2023-03-29T09:52:20.658Z,57.31
2023-03-29T09:53:20.693Z,56.35
2023-03-29T09:54:20.776Z,56.08
2023-03-29T09:55:20.930Z,56.04
2023-03-29T09:56:20.854Z,55.53
2023-03-29T09:57:20.958Z,56.04
2023-03-29T09:58:20.928Z,56.00
2023-03-29T09:59:20.986Z,55.69
2023-03-29T10:00:21.023Z,56.32
2023-03-29T10:01:21.731Z,56.09
2023-03-29T10:02:22.727Z,56.83
2023-03-29T10:03:21.173Z,56.92
2023-03-29T10:04:21.620Z,56.76
2023-03-29T10:05:20.972Z,56.97
2023-03-29T10:06:21.051Z,57.06
2023-03-29T10:07:20.925Z,57.18
2023-03-29T10:08:21.024Z,56.41
2023-03-29T10:09:21.985Z,57.06
2023-03-29T10:10:20.996Z,57.07
2023-03-29T10:11:20.953Z,57.85
2023-03-29T10:12:20.988Z,57.67
2023-03-29T10:13:20.907Z,57.05
2023-03-29T10:14:20.918Z,56.63
2023-03-29T10:15:29.166Z,55.89
2023-03-29T10:16:22.029Z,54.75
2023-03-29T10:17:20.979Z,53.96
2023-03-29T10:18:20.958Z,54.21
2023-03-29T10:19:20.845Z,53.70
2023-03-29T10:20:20.949Z,53.67
2023-03-29T10:21:21.014Z,53.74
2023-03-29T10:22:20.843Z,54.44
2023-03-29T10:23:20.818Z,54.62
2023-03-29T10:24:20.808Z,54.10
2023-03-29T10:25:20.850Z,53.65
2023-03-29T10:26:21.169Z,54.42
2023-03-29T10:27:20.917Z,55.18
2023-03-29T10:28:20.876Z,54.49
2023-03-29T10:29:21.021Z,53.47
2023-03-29T10:30:20.927Z,54.19
2023-03-29T10:31:21.144Z,54.67
2023-03-29T10:32:20.984Z,55.51
2023-03-29T10:33:20.970Z,55.36
2023-03-29T10:34:21.094Z,55.83
2023-03-29T10:35:21.058Z,55.66
2023-03-29T10:36:21.097Z,55.55
2023-03-29T10:37:21.207Z,55.19
2023-03-29T10:38:21.371Z,55.23
2023-03-29T10:39:21.354Z,54.49
2023-03-29T10:40:21.370Z,53.35
2023-03-29T10:41:21.201Z,53.04
2023-03-29T10:42:21.258Z,52.27
2023-03-29T10:43:21.285Z,52.26
2023-03-29T10:44:21.292Z,51.58
2023-03-29T10:45:21.258Z,51.05
2023-03-29T10:46:21.397Z,51.90
2023-03-29T10:47:22.096Z,52.72
2023-03-29T10:48:21.317Z,52.52
2023-03-29T10:49:21.314Z,53.34
2023-03-29T10:50:21.665Z,53.34
2023-03-29T10:51:21.444Z,53.99
2023-03-29T10:52:21.499Z,54.34
2023-03-29T10:53:21.472Z,53.53
2023-03-29T10:54:21.503Z,54.64
2023-03-29T10:55:21.536Z,54.12
2023-03-29T10:56:21.592Z,53.85
2023-03-29T10:57:22.802Z,54.17
2023-03-29T10:58:21.592Z,54.75
2023-03-29T10:59:21.613Z,52.91
2023-03-29T11:00:21.633Z,52.74
2023-03-29T11:01:21.801Z,52.19
2023-03-29T11:02:22.442Z,52.00
2023-03-29T11:03:21.955Z,51.86
2023-03-29T11:04:21.733Z,52.42
2023-03-29T11:05:21.746Z,51.63
2023-03-29T11:06:21.780Z,51.77
2023-03-29T11:07:21.751Z,51.74
2023-03-29T11:08:21.818Z,51.60
2023-03-29T11:09:21.798Z,51.84
2023-03-29T11:10:21.704Z,51.51
2023-03-29T11:11:21.865Z,51.53
2023-03-29T11:12:21.885Z,53.13
2023-03-29T11:13:21.889Z,51.97
2023-03-29T11:14:21.832Z,52.23
2023-03-29T11:15:21.995Z,52.05
2023-03-29T11:16:33.634Z,52.14
2023-03-29T11:17:22.087Z,51.59
2023-03-29T11:18:21.999Z,52.02
2023-03-29T11:19:21.938Z,51.31
2023-03-29T11:20:21.966Z,50.42
2023-03-29T11:21:22.111Z,50.51
2023-03-29T11:22:22.652Z,50.87
2023-03-29T11:23:21.905Z,51.17
2023-03-29T11:24:23.142Z,50.46
2023-03-29T11:25:22.074Z,50.76
2023-03-29T11:26:22.219Z,51.85
2023-03-29T11:27:22.019Z,51.79
2023-03-29T11:28:21.984Z,52.08
2023-03-29T11:29:22.691Z,52.20
2023-03-29T11:30:23.290Z,51.60
2023-03-29T11:31:22.277Z,51.45
2023-03-29T11:32:22.175Z,51.76
2023-03-29T11:33:21.979Z,49.75
2023-03-29T11:34:22.004Z,50.58
2023-03-29T11:35:21.968Z,50.32
2023-03-29T11:36:22.122Z,50.47
2023-03-29T11:37:21.911Z,50.74
2023-03-29T11:38:21.919Z,50.04
2023-03-29T11:39:21.968Z,49.34
2023-03-29T11:40:22.715Z,49.04
2023-03-29T11:41:22.071Z,49.17
2023-03-29T11:42:21.937Z,48.95
2023-03-29T11:43:21.841Z,49.20
2023-03-29T11:44:21.839Z,49.03
2023-03-29T11:45:21.769Z,48.18
2023-03-29T11:46:22.167Z,47.84
2023-03-29T11:47:21.870Z,48.55
2023-03-29T11:48:21.852Z,50.56
2023-03-29T11:49:21.809Z,50.12
2023-03-29T11:50:21.794Z,50.62
2023-03-29T11:51:21.823Z,50.15
2023-03-29T11:52:21.793Z,49.17
2023-03-29T11:53:21.798Z,49.06
2023-03-29T11:54:22.568Z,49.32
2023-03-29T11:55:21.916Z,49.39
2023-03-29T11:56:21.910Z,49.94
2023-03-29T11:57:21.995Z,48.35
2023-03-29T11:58:21.921Z,47.62
2023-03-29T11:59:21.893Z,47.57
2023-03-29T12:00:21.967Z,47.24
2023-03-29T12:01:21.958Z,46.56
2023-03-29T12:02:22.058Z,46.16
2023-03-29T12:03:22.198Z,45.72
2023-03-29T12:04:22.030Z,45.94
2023-03-29T12:05:29.660Z,46.42
2023-03-29T12:06:22.000Z,46.99
2023-03-29T12:07:22.009Z,46.70
2023-03-29T12:08:21.980Z,46.41
2023-03-29T12:09:21.977Z,46.24
2023-03-29T12:10:21.975Z,46.16
2023-03-29T12:11:21.988Z,46.32
2023-03-29T12:12:21.979Z,46.62
2023-03-29T12:13:22.016Z,47.27
2023-03-29T12:14:21.898Z,47.59
2023-03-29T12:15:21.948Z,47.50
2023-03-29T12:16:22.064Z,47.53
2023-03-29T12:17:22.013Z,47.64
2023-03-29T12:18:21.951Z,47.18
2023-03-29T12:19:21.941Z,47.20
2023-03-29T12:20:21.921Z,47.60
2023-03-29T12:21:21.971Z,48.36
2023-03-29T12:22:22.008Z,49.22
2023-03-29T12:23:21.924Z,48.64
2023-03-29T12:24:22.119Z,49.10
2023-03-29T12:25:23.265Z,49.53
2023-03-29T12:26:22.008Z,49.97
2023-03-29T12:27:22.046Z,48.69
2023-03-29T12:28:22.047Z,48.76
2023-03-29T12:29:22.089Z,48.20
2023-03-29T12:30:22.066Z,47.61
2023-03-29T12:31:22.253Z,47.80
2023-03-29T12:32:22.212Z,47.29
2023-03-29T12:33:22.141Z,46.89
2023-03-29T12:34:22.201Z,46.64
2023-03-29T12:35:22.153Z,47.42
2023-03-29T12:36:22.168Z,47.80
2023-03-29T12:37:22.196Z,48.09
2023-03-29T12:38:22.164Z,47.87
2023-03-29T12:39:22.209Z,48.46
2023-03-29T12:40:22.240Z,48.90
2023-03-29T12:41:22.343Z,48.90
2023-03-29T12:42:22.353Z,48.99
2023-03-29T12:43:22.350Z,48.55
2023-03-29T12:44:22.427Z,48.37
2023-03-29T12:45:22.378Z,48.04
2023-03-29T12:46:22.592Z,48.23
2023-03-29T12:47:22.491Z,47.15
2023-03-29T12:48:22.562Z,46.69
2023-03-29T12:49:22.552Z,46.70
2023-03-29T12:50:22.568Z,46.96
2023-03-29T12:51:22.782Z,47.08
2023-03-29T12:52:22.621Z,47.38
2023-03-29T12:53:22.640Z,47.73
2023-03-29T12:54:22.700Z,47.89
2023-03-29T12:55:22.721Z,47.33
2023-03-29T12:56:23.174Z,47.13